Time;durP1;ratioP1;P1;durP2;ratioP2;P2;SDS_P1;SDS_P2;PMS_P1;PMS_P2;Temp;Humidity;BMP_temperature;BMP_pressure;BME280_temperature;BME280_humidity;BME280_pressure;Samples;Min_cycle;Max_cycle;Signal;HPM_P1;HPM_P2
2022/11/16 00:00:00;;;;;;;0.80;0.60;;;12.50;99.90;;;;;;5009295;28;20224;-63
2022/11/16 00:02:28;;;;;;;0.70;0.70;;;12.50;99.90;;;;;;5012381;28;20240;-63
2022/11/16 00:04:55;;;;;;;0.70;0.70;;;12.60;99.90;;;;;;5008158;28;20260;-63
2022/11/16 00:07:22;;;;;;;0.50;0.50;;;12.70;99.90;;;;;;5013131;28;20668;-63
2022/11/16 00:09:49;;;;;;;0.53;0.53;;;12.70;99.90;;;;;;5013317;28;20723;-63
2022/11/16 00:12:15;;;;;;;0.40;0.40;;;12.60;99.90;;;;;;5015365;28;20228;-67
2022/11/16 00:14:42;;;;;;;0.50;0.50;;;12.60;99.90;;;;;;5015063;28;20209;-62
2022/11/16 00:17:09;;;;;;;0.60;0.60;;;12.60;99.90;;;;;;5015485;28;20236;-64
2022/11/16 00:19:37;;;;;;;0.50;0.50;;;12.60;99.90;;;;;;5014519;28;20678;-63
2022/11/16 00:22:04;;;;;;;0.80;0.80;;;12.70;99.90;;;;;;5014417;28;20315;-64
2022/11/16 00:24:31;;;;;;;1.00;1.00;;;12.60;99.90;;;;;;5013615;28;20202;-61
2022/11/16 00:26:58;;;;;;;0.63;0.63;;;12.50;99.90;;;;;;5014433;28;20611;-64
2022/11/16 00:29:26;;;;;;;1.00;1.00;;;12.50;99.90;;;;;;5013792;28;20197;-62
2022/11/16 00:31:53;;;;;;;0.77;0.77;;;12.60;99.90;;;;;;5014206;28;20348;-62
2022/11/16 00:34:21;;;;;;;0.80;0.80;;;12.70;99.90;;;;;;5012770;28;20648;-62
2022/11/16 00:36:49;;;;;;;0.90;0.90;;;12.70;99.90;;;;;;5013747;28;20575;-62
2022/11/16 00:39:17;;;;;;;0.90;0.90;;;12.70;99.90;;;;;;5013633;28;20209;-64
2022/11/16 00:41:44;;;;;;;1.10;1.10;;;12.70;99.90;;;;;;5013666;28;20240;-63
2022/11/16 00:44:11;;;;;;;0.90;0.90;;;12.70;99.90;;;;;;5012725;28;20215;-63
2022/11/16 00:46:39;;;;;;;0.70;0.70;;;12.70;99.90;;;;;;5013742;28;20660;-63
2022/11/16 00:49:06;;;;;;;0.70;0.70;;;12.70;99.90;;;;;;5013359;28;20213;-62
2022/11/16 00:51:33;;;;;;;0.80;0.80;;;12.70;99.90;;;;;;5013382;28;20651;-64
2022/11/16 00:54:02;;;;;;;0.90;0.90;;;12.70;99.90;;;;;;5013523;28;20676;-63
2022/11/16 00:56:29;;;;;;;0.60;0.60;;;12.70;99.90;;;;;;5012676;28;20247;-62
2022/11/16 00:58:56;;;;;;;0.70;0.70;;;12.60;99.90;;;;;;5013149;28;20201;-62
2022/11/16 01:01:22;;;;;;;0.70;0.70;;;12.60;99.90;;;;;;5012944;28;20271;-63
2022/11/16 01:03:49;;;;;;;0.80;0.80;;;12.50;99.90;;;;;;5013059;28;20582;-63
2022/11/16 01:06:17;;;;;;;0.50;0.50;;;12.50;99.90;;;;;;5012490;28;20201;-63
2022/11/16 01:08:45;;;;;;;0.60;0.60;;;12.50;99.90;;;;;;5006710;28;20198;-63
2022/11/16 01:14:02;;;;;;;0.60;0.60;;;12.40;99.90;;;;;;5013743;28;20563;-64
2022/11/16 01:16:29;;;;;;;0.67;0.67;;;12.40;99.90;;;;;;5013101;28;20679;-61
2022/11/16 01:18:56;;;;;;;0.50;0.50;;;12.40;99.90;;;;;;5013429;28;20221;-63
2022/11/16 01:21:23;;;;;;;0.40;0.40;;;12.50;99.90;;;;;;5020000;28;20227;-63
2022/11/16 01:23:50;;;;;;;0.70;0.70;;;12.50;99.90;;;;;;5013008;28;20314;-63
2022/11/16 01:26:19;;;;;;;0.60;0.60;;;12.40;99.90;;;;;;5012824;28;20201;-63
2022/11/16 01:28:45;;;;;;;0.63;0.63;;;12.50;99.90;;;;;;5014208;28;20202;-63
2022/11/16 01:31:12;;;;;;;0.60;0.60;;;12.50;99.90;;;;;;5011871;28;20583;-63
2022/11/16 01:33:39;;;;;;;0.93;0.80;;;12.50;99.90;;;;;;5013589;28;20209;-62
2022/11/16 01:36:13;;;;;;;0.60;0.60;;;12.50;99.90;;;;;;5012734;28;20201;-63
2022/11/16 01:38:42;;;;;;;0.70;0.70;;;12.50;99.90;;;;;;5012714;28;20225;-63
2022/11/16 01:41:09;;;;;;;0.50;0.50;;;12.50;99.90;;;;;;5012729;28;20229;-63
2022/11/16 01:43:55;;;;;;;0.50;0.50;;;12.60;99.90;;;;;;5012595;28;20236;-62
2022/11/16 01:46:22;;;;;;;0.50;0.50;;;12.60;99.90;;;;;;5012110;28;20205;-62
2022/11/16 01:48:53;;;;;;;0.67;0.67;;;12.60;99.90;;;;;;5012591;28;20205;-64
2022/11/16 01:51:21;;;;;;;0.60;0.60;;;12.60;99.90;;;;;;5004636;28;20224;-62
2022/11/16 01:53:48;;;;;;;0.50;0.50;;;12.60;99.90;;;;;;5012216;28;20679;-64
2022/11/16 01:56:15;;;;;;;0.40;0.40;;;12.60;99.90;;;;;;5012072;28;20209;-63
2022/11/16 01:58:42;;;;;;;0.63;0.63;;;12.60;99.90;;;;;;5012257;28;20260;-64
2022/11/16 02:01:10;;;;;;;0.60;0.60;;;12.60;99.90;;;;;;5011748;28;20243;-62
2022/11/16 02:03:38;;;;;;;0.57;0.57;;;12.70;99.90;;;;;;5012689;28;20205;-63
2022/11/16 02:06:19;;;;;;;0.50;0.50;;;12.70;99.90;;;;;;5011585;28;20251;-63
2022/11/16 02:11:58;;;;;;;1.20;1.20;;;12.50;99.90;;;;;;5006038;28;20757;-64
2022/11/16 02:14:37;;;;;;;1.70;1.60;;;12.40;99.90;;;;;;5015850;28;20703;-62
2022/11/16 02:17:14;;;;;;;1.63;1.60;;;12.30;99.90;;;;;;5011889;28;20204;-64
2022/11/16 02:20:03;;;;;;;1.00;1.00;;;12.20;99.90;;;;;;5012854;28;20196;-63
2022/11/16 02:22:46;;;;;;;1.00;0.97;;;12.20;99.90;;;;;;5011971;28;20201;-63
2022/11/16 02:25:21;;;;;;;0.73;0.73;;;12.20;99.90;;;;;;5011507;28;20211;-63
2022/11/16 02:28:06;;;;;;;0.80;0.80;;;12.30;99.90;;;;;;5006628;28;20204;-64
2022/11/16 02:30:36;;;;;;;0.70;0.70;;;12.30;99.90;;;;;;5006639;28;20663;-63
2022/11/16 02:33:08;;;;;;;0.60;0.60;;;12.40;99.90;;;;;;5016071;28;20207;-62
2022/11/16 02:35:42;;;;;;;0.50;0.50;;;12.40;99.90;;;;;;5010140;28;20288;-63
2022/11/16 02:38:14;;;;;;;0.73;0.47;;;12.40;99.90;;;;;;5015926;28;20416;-64
2022/11/16 02:40:46;;;;;;;0.57;0.57;;;12.50;99.90;;;;;;5016102;28;20228;-63
2022/11/16 02:43:19;;;;;;;0.60;0.60;;;12.50;99.90;;;;;;5016024;28;20221;-62
2022/11/16 02:45:50;;;;;;;0.50;0.50;;;12.60;99.90;;;;;;5014952;28;20201;-63
2022/11/16 02:48:23;;;;;;;0.50;0.50;;;12.60;99.90;;;;;;5015718;28;20581;-63
2022/11/16 02:50:52;;;;;;;0.50;0.50;;;12.60;99.90;;;;;;5015897;28;20247;-62
2022/11/16 02:53:20;;;;;;;0.50;0.50;;;12.70;99.90;;;;;;5015881;28;20201;-63
2022/11/16 02:55:47;;;;;;;0.47;0.47;;;12.70;99.90;;;;;;5015317;28;20209;-63
2022/11/16 02:58:17;;;;;;;0.40;0.40;;;12.80;99.90;;;;;;5015878;28;20246;-63
2022/11/16 03:00:52;;;;;;;0.50;0.50;;;12.80;99.90;;;;;;5015820;28;20243;-64
2022/11/16 03:03:27;;;;;;;0.53;0.53;;;12.80;99.90;;;;;;5015518;28;20208;-63
2022/11/16 03:05:59;;;;;;;0.40;0.40;;;12.70;99.90;;;;;;5015498;28;20300;-64
2022/11/16 03:08:30;;;;;;;0.43;0.43;;;12.80;99.90;;;;;;5016194;28;20200;-62
2022/11/16 03:13:48;;;;;;;0.40;0.40;;;12.80;99.90;;;;;;5012523;28;20211;-65
2022/11/16 03:16:20;;;;;;;0.47;0.47;;;12.90;99.90;;;;;;5014550;28;20718;-62
2022/11/16 03:18:50;;;;;;;0.40;0.40;;;12.90;99.90;;;;;;5015744;28;20232;-61
2022/11/16 03:21:24;;;;;;;0.50;0.50;;;12.90;99.90;;;;;;5015870;28;20227;-61
2022/11/16 03:23:51;;;;;;;0.57;0.57;;;13.00;99.90;;;;;;5016644;28;20205;-63
2022/11/16 03:26:23;;;;;;;0.50;0.50;;;12.90;99.90;;;;;;5016812;28;20309;-63
2022/11/16 03:29:00;;;;;;;0.40;0.40;;;13.00;99.90;;;;;;5012725;28;20211;-63
2022/11/16 03:31:31;;;;;;;0.37;0.37;;;13.00;99.90;;;;;;5016014;28;20236;-64
2022/11/16 03:34:03;;;;;;;0.50;0.50;;;13.00;99.90;;;;;;5018424;28;20732;-61
2022/11/16 03:36:33;;;;;;;0.60;0.60;;;12.90;99.90;;;;;;5014460;28;20659;-63
2022/11/16 03:39:06;;;;;;;0.50;0.50;;;12.90;99.90;;;;;;5017337;28;20223;-62
2022/11/16 03:41:41;;;;;;;0.47;0.47;;;12.90;99.90;;;;;;5003543;28;20683;-64
2022/11/16 03:44:10;;;;;;;0.40;0.40;;;12.90;99.90;;;;;;5015494;28;20197;-61
2022/11/16 03:46:39;;;;;;;0.40;0.40;;;12.90;99.90;;;;;;5016827;28;20202;-63
2022/11/16 03:49:07;;;;;;;0.60;0.60;;;12.90;99.90;;;;;;5016552;28;20293;-62
2022/11/16 03:51:33;;;;;;;0.37;0.37;;;12.90;99.90;;;;;;5015033;28;20231;-65
2022/11/16 03:54:00;;;;;;;0.60;0.60;;;12.80;99.90;;;;;;5015830;28;20212;-64
2022/11/16 03:56:27;;;;;;;0.63;0.63;;;12.80;99.90;;;;;;5014275;28;20216;-65
2022/11/16 03:58:54;;;;;;;0.50;0.50;;;12.80;99.90;;;;;;5014792;28;20229;-63
2022/11/16 04:01:21;;;;;;;0.73;0.57;;;12.70;99.90;;;;;;5013664;28;20244;-62
2022/11/16 04:03:49;;;;;;;0.47;0.47;;;12.70;99.90;;;;;;5014618;28;20607;-62
2022/11/16 04:26:07;;;;;;;0.70;0.70;;;12.60;99.90;;;;;;4932294;29;20200;-61
2022/11/16 04:28:34;;;;;;;0.70;0.70;;;12.50;99.90;;;;;;4930164;29;20204;-62
2022/11/16 04:39:19;;;;;;;0.50;0.50;;;12.50;99.90;;;;;;5014346;28;20224;-63
2022/11/16 04:47:11;;;;;;;0.53;0.53;;;12.50;99.90;;;;;;5013232;28;20675;-61
2022/11/16 04:49:37;;;;;;;0.60;0.60;;;12.60;99.90;;;;;;5014903;28;20214;-62
2022/11/16 04:52:06;;;;;;;0.60;0.60;;;12.60;99.90;;;;;;5013576;28;20221;-63
2022/11/16 04:54:32;;;;;;;0.70;0.70;;;12.60;99.90;;;;;;5011227;28;20674;-63
2022/11/16 04:56:59;;;;;;;0.60;0.60;;;12.60;99.90;;;;;;5014216;28;20217;-63
2022/11/16 04:59:26;;;;;;;0.60;0.60;;;12.60;99.90;;;;;;5015155;28;20317;-63
2022/11/16 05:02:08;;;;;;;0.50;0.50;;;12.60;99.90;;;;;;5014733;28;20237;-63
2022/11/16 05:04:35;;;;;;;0.60;0.60;;;12.70;99.90;;;;;;5011298;28;20197;-64
2022/11/16 05:07:02;;;;;;;0.53;0.53;;;12.60;99.90;;;;;;5018226;28;20215;-62
2022/11/16 05:09:30;;;;;;;0.40;0.40;;;12.60;99.90;;;;;;5013595;28;20209;-62
2022/11/16 05:11:57;;;;;;;0.60;0.60;;;12.70;99.90;;;;;;5013173;28;20299;-62
2022/11/16 05:14:24;;;;;;;0.70;0.70;;;12.70;99.90;;;;;;5012723;28;20205;-62
2022/11/16 05:16:50;;;;;;;0.60;0.60;;;12.70;99.90;;;;;;5013472;28;20201;-62
2022/11/16 05:22:01;;;;;;;0.60;0.60;;;12.70;99.90;;;;;;5014152;28;20295;-62
2022/11/16 05:24:35;;;;;;;0.50;0.50;;;12.70;99.90;;;;;;5014474;28;20213;-62
2022/11/16 05:27:03;;;;;;;0.70;0.70;;;12.70;99.90;;;;;;5014258;28;20577;-62
2022/11/16 05:29:30;;;;;;;0.90;0.90;;;12.70;99.90;;;;;;5013963;28;20233;-62
2022/11/16 05:31:58;;;;;;;0.73;0.73;;;12.60;99.90;;;;;;5013639;28;20225;-63
2022/11/16 05:34:25;;;;;;;0.50;0.50;;;12.60;99.90;;;;;;5014785;28;20209;-63
2022/11/16 05:36:52;;;;;;;0.43;0.43;;;12.60;99.90;;;;;;5014646;28;20570;-62
2022/11/16 05:39:19;;;;;;;0.33;0.33;;;12.60;99.90;;;;;;5014071;28;20225;-63
2022/11/16 05:41:47;;;;;;;0.20;0.20;;;12.60;99.90;;;;;;5013623;28;20256;-63
2022/11/16 05:44:15;;;;;;;0.30;0.30;;;12.50;99.90;;;;;;5012494;28;20220;-62
2022/11/16 05:46:43;;;;;;;0.40;0.40;;;12.60;99.90;;;;;;5013914;28;20205;-61
2022/11/16 05:49:10;;;;;;;0.40;0.40;;;12.50;99.90;;;;;;5013393;28;20668;-63
2022/11/16 05:51:39;;;;;;;0.30;0.30;;;12.60;99.90;;;;;;5013726;28;20225;-62
2022/11/16 05:54:07;;;;;;;0.53;0.33;;;12.60;99.90;;;;;;5014119;28;20205;-61
2022/11/16 05:56:35;;;;;;;0.20;0.20;;;12.50;99.90;;;;;;5012934;28;20210;-61
2022/11/16 05:59:03;;;;;;;0.10;0.10;;;12.60;99.90;;;;;;5014484;28;20231;-63
2022/11/16 06:01:30;;;;;;;0.57;0.57;;;12.60;99.90;;;;;;5014786;28;20228;-63
2022/11/16 06:03:59;;;;;;;0.40;0.40;;;12.60;99.90;;;;;;5015987;28;20216;-63
2022/11/16 06:06:27;;;;;;;0.63;0.40;;;12.70;99.90;;;;;;5017193;28;20640;-62
2022/11/16 06:08:54;;;;;;;1.13;0.50;;;12.70;99.90;;;;;;5016721;28;20575;-62
2022/11/16 06:11:22;;;;;;;1.03;0.43;;;12.70;99.90;;;;;;5014983;28;20235;-61
2022/11/16 06:13:49;;;;;;;0.30;0.30;;;12.70;99.90;;;;;;5014070;28;20581;-62
2022/11/16 06:16:17;;;;;;;0.50;0.50;;;12.60;99.90;;;;;;5011269;28;20213;-61
2022/11/16 06:18:46;;;;;;;0.50;0.50;;;12.60;99.90;;;;;;5012671;28;20229;-62
2022/11/16 06:21:14;;;;;;;0.23;0.23;;;12.60;99.90;;;;;;5012693;28;20225;-62
2022/11/16 06:23:41;;;;;;;2.40;0.60;;;12.60;99.90;;;;;;5012826;28;20217;-65
2022/11/16 06:26:09;;;;;;;0.40;0.40;;;12.70;99.90;;;;;;5009060;28;20562;-63
2022/11/16 06:28:36;;;;;;;0.53;0.53;;;12.70;99.90;;;;;;5013458;28;20726;-63
2022/11/16 06:31:03;;;;;;;0.60;0.60;;;12.80;99.90;;;;;;5014728;28;20231;-62
2022/11/16 06:33:31;;;;;;;0.40;0.40;;;12.80;99.90;;;;;;5013569;28;20215;-65
2022/11/16 06:35:58;;;;;;;0.67;0.60;;;12.80;99.90;;;;;;5011661;28;20203;-63
2022/11/16 06:38:25;;;;;;;0.30;0.30;;;12.70;99.90;;;;;;5012244;28;20691;-62
2022/11/16 06:40:54;;;;;;;0.50;0.50;;;12.70;99.90;;;;;;5012888;28;20229;-64
2022/11/16 06:43:21;;;;;;;0.50;0.50;;;12.60;99.90;;;;;;5011552;28;20208;-64
2022/11/16 06:45:49;;;;;;;0.50;0.50;;;12.60;99.90;;;;;;5011709;28;20216;-65
2022/11/16 06:48:16;;;;;;;0.30;0.30;;;12.60;99.90;;;;;;5012289;28;20726;-62
2022/11/16 06:50:45;;;;;;;0.40;0.40;;;12.50;99.90;;;;;;5012191;28;20228;-63
2022/11/16 06:53:11;;;;;;;0.50;0.50;;;12.50;99.90;;;;;;5012134;28;20548;-64
2022/11/16 06:55:38;;;;;;;0.60;0.60;;;12.50;99.90;;;;;;5011559;28;20216;-64
2022/11/16 06:58:05;;;;;;;0.60;0.60;;;12.40;99.90;;;;;;5011451;28;20205;-64
2022/11/16 07:00:32;;;;;;;0.50;0.50;;;12.40;99.90;;;;;;5011047;28;20252;-63
2022/11/16 07:02:59;;;;;;;0.30;0.30;;;12.40;99.90;;;;;;5009977;28;20644;-64
2022/11/16 07:05:26;;;;;;;0.70;0.70;;;12.40;99.90;;;;;;5009426;28;20197;-62
2022/11/16 07:07:55;;;;;;;0.77;0.77;;;12.40;99.90;;;;;;5011642;28;20316;-62
2022/11/16 07:10:22;;;;;;;0.50;0.50;;;12.40;99.90;;;;;;5011863;28;20232;-62
2022/11/16 07:12:49;;;;;;;1.00;0.70;;;12.30;99.90;;;;;;5012315;28;20198;-64
2022/11/16 07:15:16;;;;;;;0.70;0.70;;;12.30;99.90;;;;;;5011419;28;20207;-62
2022/11/16 07:17:43;;;;;;;0.60;0.60;;;12.30;99.90;;;;;;5017581;28;20197;-64
2022/11/16 07:20:10;;;;;;;0.60;0.60;;;12.30;99.90;;;;;;5014467;28;20221;-64
2022/11/16 07:22:37;;;;;;;0.60;0.60;;;12.30;99.90;;;;;;5016747;28;20201;-65
2022/11/16 07:25:07;;;;;;;0.50;0.50;;;12.30;99.90;;;;;;5015663;28;20205;-65
2022/11/16 07:27:34;;;;;;;0.40;0.40;;;12.30;99.90;;;;;;5015383;28;20617;-64
2022/11/16 07:30:01;;;;;;;0.47;0.47;;;12.30;99.90;;;;;;5013438;28;20202;-63
2022/11/16 07:32:31;;;;;;;0.47;0.47;;;12.30;99.90;;;;;;5006331;28;20209;-65
2022/11/16 07:34:58;;;;;;;0.60;0.50;;;12.30;99.90;;;;;;5017230;28;20193;-65
2022/11/16 07:37:25;;;;;;;0.50;0.50;;;12.20;99.90;;;;;;5015671;28;20205;-64
2022/11/16 07:39:52;;;;;;;0.60;0.60;;;12.20;99.90;;;;;;5019293;28;20632;-64
2022/11/16 07:42:20;;;;;;;0.50;0.50;;;12.20;99.90;;;;;;5013127;28;20217;-62
2022/11/16 07:44:47;;;;;;;0.60;0.60;;;12.20;99.90;;;;;;5015016;28;20201;-63
2022/11/16 07:47:13;;;;;;;0.70;0.70;;;12.30;99.90;;;;;;5013842;28;20206;-64
2022/11/16 07:49:40;;;;;;;1.17;0.77;;;12.30;99.90;;;;;;5014904;28;20307;-66
2022/11/16 07:52:08;;;;;;;0.60;0.60;;;12.40;99.90;;;;;;5013838;28;20227;-63
2022/11/16 07:54:35;;;;;;;0.90;0.90;;;12.40;99.90;;;;;;5012275;28;20252;-63
2022/11/16 07:57:02;;;;;;;0.60;0.60;;;12.40;99.90;;;;;;5014487;28;20231;-64
2022/11/16 07:59:30;;;;;;;0.63;0.63;;;12.40;99.90;;;;;;5015052;28;20267;-63
2022/11/16 08:01:57;;;;;;;0.70;0.70;;;12.40;99.90;;;;;;5015217;28;20596;-63
2022/11/16 08:04:24;;;;;;;0.70;0.70;;;12.40;99.90;;;;;;5020034;28;20204;-64
2022/11/16 08:06:51;;;;;;;0.60;0.60;;;12.40;99.90;;;;;;5018032;28;20201;-63
2022/11/16 08:09:18;;;;;;;0.70;0.70;;;12.40;99.90;;;;;;5017330;28;20224;-64
2022/11/16 08:11:45;;;;;;;0.50;0.50;;;12.40;99.90;;;;;;5010999;28;20305;-62
2022/11/16 08:14:12;;;;;;;0.57;0.57;;;12.60;99.90;;;;;;5008738;28;20206;-66
2022/11/16 08:16:41;;;;;;;0.60;0.60;;;12.60;99.90;;;;;;5012283;28;20209;-64
2022/11/16 08:19:09;;;;;;;0.50;0.50;;;12.60;99.90;;;;;;5013387;28;20803;-63
2022/11/16 08:21:36;;;;;;;0.77;0.77;;;12.60;99.90;;;;;;5018183;28;20256;-63
2022/11/16 08:24:03;;;;;;;0.60;0.60;;;12.60;99.90;;;;;;5010745;28;20248;-64
2022/11/16 08:26:29;;;;;;;0.57;0.57;;;12.70;99.90;;;;;;5015736;28;20215;-64
2022/11/16 08:28:56;;;;;;;0.50;0.50;;;12.80;99.90;;;;;;5013822;28;20201;-63
2022/11/16 08:31:25;;;;;;;0.77;0.77;;;12.80;99.90;;;;;;5010776;28;20653;-64
2022/11/16 08:33:55;;;;;;;0.53;0.53;;;12.80;99.90;;;;;;5011115;28;20205;-62
2022/11/16 08:36:22;;;;;;;0.73;0.60;;;12.90;99.90;;;;;;5011913;28;20288;-65
2022/11/16 08:38:51;;;;;;;0.47;0.47;;;13.00;99.90;;;;;;5011745;28;20392;-64
2022/11/16 08:41:19;;;;;;;0.60;0.60;;;13.10;99.90;;;;;;5010375;28;20350;-64
2022/11/16 08:43:49;;;;;;;0.83;0.77;;;13.20;99.90;;;;;;5015696;28;20205;-65
2022/11/16 08:46:16;;;;;;;0.70;0.70;;;13.20;99.90;;;;;;5013703;28;20205;-63
2022/11/16 08:48:43;;;;;;;0.60;0.60;;;13.30;99.90;;;;;;5008768;28;20213;-63
2022/11/16 08:51:14;;;;;;;0.67;0.67;;;13.40;99.90;;;;;;5013196;28;20635;-64
2022/11/16 08:53:41;;;;;;;0.73;0.73;;;13.30;99.90;;;;;;5006278;28;20671;-64
2022/11/16 08:56:10;;;;;;;0.57;0.57;;;13.30;99.90;;;;;;5007208;28;20208;-66
2022/11/16 08:58:37;;;;;;;0.53;0.53;;;13.50;99.90;;;;;;5011606;28;20645;-64
2022/11/16 09:01:08;;;;;;;0.73;0.73;;;13.60;99.90;;;;;;5011307;28;20247;-63
2022/11/16 09:03:36;;;;;;;0.60;0.60;;;13.70;99.90;;;;;;5008690;28;20217;-65
2022/11/16 09:06:03;;;;;;;0.80;0.80;;;13.70;99.90;;;;;;5011721;28;20208;-64
2022/11/16 09:08:32;;;;;;;0.60;0.60;;;13.80;99.90;;;;;;5011829;28;20211;-64
2022/11/16 09:10:59;;;;;;;0.67;0.67;;;13.90;99.90;;;;;;5013006;28;20304;-64
2022/11/16 09:13:26;;;;;;;0.50;0.50;;;14.10;99.90;;;;;;5008992;28;20205;-64
2022/11/16 09:15:57;;;;;;;0.53;0.53;;;14.30;99.90;;;;;;5010010;28;20201;-63
2022/11/16 09:18:24;;;;;;;0.70;0.70;;;14.60;99.90;;;;;;5007054;28;20201;-65
2022/11/16 09:20:51;;;;;;;0.80;0.80;;;14.60;99.90;;;;;;5008194;28;20259;-64
2022/11/16 09:23:17;;;;;;;0.70;0.70;;;14.50;99.90;;;;;;5012508;28;20285;-65
2022/11/16 09:25:47;;;;;;;0.67;0.67;;;14.50;99.90;;;;;;5012212;28;20210;-64
2022/11/16 09:28:14;;;;;;;0.80;0.80;;;14.60;99.90;;;;;;5011059;28;20202;-63
2022/11/16 09:30:41;;;;;;;0.73;0.73;;;14.60;99.90;;;;;;5013212;28;20213;-65
2022/11/16 09:33:08;;;;;;;0.70;0.70;;;14.70;99.90;;;;;;5012850;28;20590;-65
2022/11/16 09:35:36;;;;;;;1.00;0.90;;;14.60;99.90;;;;;;5010634;28;20201;-65
2022/11/16 09:38:03;;;;;;;0.97;0.70;;;14.50;99.90;;;;;;5012457;28;20309;-64
2022/11/16 09:40:34;;;;;;;0.63;0.63;;;14.60;99.90;;;;;;5013937;28;20225;-63
2022/11/16 09:43:09;;;;;;;0.87;0.70;;;14.60;99.90;;;;;;5005058;28;20205;-65
2022/11/16 09:45:43;;;;;;;0.50;0.50;;;14.70;99.90;;;;;;5006369;28;20672;-63
2022/11/16 09:48:13;;;;;;;0.77;0.77;;;14.80;99.90;;;;;;5009605;28;20205;-65
2022/11/16 09:50:45;;;;;;;0.57;0.57;;;14.90;99.90;;;;;;5012623;28;20217;-63
2022/11/16 09:53:25;;;;;;;0.80;0.80;;;14.90;99.90;;;;;;5010207;28;20252;-64
2022/11/16 09:55:54;;;;;;;0.40;0.40;;;15.00;99.90;;;;;;5012015;28;20208;-63
2022/11/16 09:58:29;;;;;;;0.60;0.60;;;15.30;99.90;;;;;;5013135;28;20344;-64
2022/11/16 10:01:01;;;;;;;0.67;0.67;;;15.30;99.90;;;;;;5013115;28;20231;-64
2022/11/16 10:03:31;;;;;;;0.70;0.70;;;15.30;99.90;;;;;;5013141;28;20227;-63
2022/11/16 10:06:03;;;;;;;0.73;0.43;;;15.40;99.90;;;;;;5011517;28;20568;-64
2022/11/16 10:08:42;;;;;;;0.60;0.60;;;15.50;99.90;;;;;;5012248;28;20223;-63
2022/11/16 10:11:35;;;;;;;0.80;0.80;;;15.50;99.90;;;;;;5012447;28;20239;-64
2022/11/16 10:14:20;;;;;;;0.57;0.57;;;15.60;99.90;;;;;;5013049;28;20794;-63
2022/11/16 10:16:57;;;;;;;1.23;0.90;;;15.70;99.90;;;;;;5012570;28;20291;-66
2022/11/16 10:19:31;;;;;;;0.70;0.70;;;15.70;99.90;;;;;;5013722;28;20232;-65
2022/11/16 10:22:04;;;;;;;0.60;0.60;;;15.70;99.90;;;;;;5012317;28;20221;-64
2022/11/16 10:24:52;;;;;;;0.50;0.50;;;15.70;99.90;;;;;;5011631;28;20211;-64
2022/11/16 10:27:44;;;;;;;0.50;0.50;;;15.70;99.90;;;;;;5016311;28;20204;-62
2022/11/16 10:30:16;;;;;;;0.60;0.60;;;15.70;99.90;;;;;;5013088;28;20216;-65
2022/11/16 10:32:50;;;;;;;0.57;0.57;;;15.80;99.90;;;;;;5019954;28;20560;-64
2022/11/16 10:35:22;;;;;;;0.60;0.60;;;15.80;99.90;;;;;;5021705;28;20212;-64
2022/11/16 10:37:50;;;;;;;0.60;0.60;;;15.80;99.90;;;;;;5018335;28;20211;-64
2022/11/16 10:40:22;;;;;;;0.60;0.60;;;15.90;99.90;;;;;;5017699;28;20225;-64
2022/11/16 10:42:59;;;;;;;0.57;0.57;;;16.00;99.90;;;;;;5024747;28;20798;-65
2022/11/16 10:45:33;;;;;;;0.80;0.80;;;16.10;99.90;;;;;;5012432;28;20201;-63
2022/11/16 10:48:06;;;;;;;0.67;0.67;;;16.10;99.90;;;;;;5012107;28;20205;-64
2022/11/16 10:50:39;;;;;;;0.50;0.50;;;15.90;99.90;;;;;;5028882;23;20336;-63
2022/11/16 10:53:06;;;;;;;1.03;0.87;;;15.90;99.90;;;;;;4990303;28;20220;-65
2022/11/16 10:55:33;;;;;;;0.67;0.67;;;15.80;99.90;;;;;;4996034;28;20212;-63
2022/11/16 10:58:02;;;;;;;0.63;0.63;;;15.80;99.90;;;;;;4996519;28;20202;-64
2022/11/16 11:00:40;;;;;;;0.83;0.80;;;15.70;99.90;;;;;;4995811;28;20236;-63
2022/11/16 11:03:09;;;;;;;1.10;0.63;;;15.70;99.90;;;;;;4996151;28;20706;-64
2022/11/16 11:05:36;;;;;;;0.60;0.60;;;15.70;99.90;;;;;;4995405;28;20230;-63
2022/11/16 11:08:06;;;;;;;0.73;0.73;;;15.70;99.90;;;;;;4998446;28;20205;-64
2022/11/16 11:10:34;;;;;;;0.63;0.63;;;15.80;99.90;;;;;;4989048;28;20205;-64
2022/11/16 11:13:25;;;;;;;0.87;0.60;;;15.80;99.90;;;;;;4994598;28;20214;-64
2022/11/16 11:16:14;;;;;;;1.37;0.90;;;15.90;99.90;;;;;;5002869;28;20747;-64
2022/11/16 11:18:41;;;;;;;0.97;0.90;;;16.00;99.90;;;;;;5009150;28;20197;-65
2022/11/16 11:21:16;;;;;;;0.73;0.73;;;16.10;99.90;;;;;;5017514;28;20302;-63
2022/11/16 11:23:46;;;;;;;0.80;0.80;;;16.10;99.90;;;;;;5007377;28;20207;-65
2022/11/16 11:26:28;;;;;;;0.47;0.47;;;16.10;99.90;;;;;;5009126;28;20626;-63
2022/11/16 11:28:56;;;;;;;0.90;0.90;;;16.10;99.90;;;;;;5007424;28;20587;-66
2022/11/16 11:31:31;;;;;;;0.90;0.90;;;16.10;99.90;;;;;;5001655;28;20305;-66
2022/11/16 11:34:03;;;;;;;0.70;0.70;;;16.20;99.90;;;;;;5010540;28;20205;-64
2022/11/16 11:36:37;;;;;;;0.53;0.53;;;16.20;99.90;;;;;;4993966;28;20347;-66
2022/11/16 11:39:06;;;;;;;0.93;0.70;;;16.20;99.90;;;;;;4999573;28;20210;-66
2022/11/16 11:41:36;;;;;;;0.67;0.67;;;16.20;99.90;;;;;;4994154;28;20232;-65
2022/11/16 11:44:05;;;;;;;0.53;0.53;;;16.30;99.90;;;;;;5000513;28;20210;-64
2022/11/16 11:46:37;;;;;;;0.60;0.60;;;16.40;99.90;;;;;;5012033;28;20261;-65
2022/11/16 11:49:11;;;;;;;0.60;0.60;;;16.40;99.90;;;;;;5005897;28;20197;-64
2022/11/16 11:51:41;;;;;;;0.50;0.50;;;16.40;99.90;;;;;;4991610;28;20251;-65
2022/11/16 11:54:18;;;;;;;0.40;0.40;;;16.30;99.90;;;;;;4995873;28;20198;-64
2022/11/16 11:56:45;;;;;;;0.60;0.43;;;16.40;99.90;;;;;;5005307;28;20202;-64
2022/11/16 11:59:18;;;;;;;0.60;0.60;;;16.40;99.90;;;;;;4991165;28;20582;-65
2022/11/16 12:02:02;;;;;;;0.83;0.57;;;16.40;99.90;;;;;;4994659;28;20240;-63
2022/11/16 12:05:05;;;;;;;0.60;0.60;;;16.30;99.90;;;;;;4993514;28;20245;-64
2022/11/16 12:07:49;;;;;;;0.60;0.60;;;16.30;99.90;;;;;;5000487;28;20289;-66
2022/11/16 12:10:25;;;;;;;0.60;0.60;;;16.30;99.90;;;;;;4998992;28;20286;-65
2022/11/16 12:13:05;;;;;;;1.83;1.30;;;16.30;99.90;;;;;;4991106;28;20564;-65
2022/11/16 12:15:53;;;;;;;0.73;0.73;;;16.30;99.90;;;;;;5006320;28;20281;-64
2022/11/16 12:18:42;;;;;;;0.70;0.70;;;16.30;99.90;;;;;;5005494;28;20228;-64
2022/11/16 12:21:13;;;;;;;0.53;0.53;;;16.30;99.90;;;;;;4996728;28;20229;-64
2022/11/16 12:24:12;;;;;;;0.83;0.83;;;16.20;99.90;;;;;;5005648;28;20205;-65
2022/11/16 12:26:52;;;;;;;0.80;0.80;;;16.30;99.90;;;;;;4998501;28;20198;-65
2022/11/16 12:29:25;;;;;;;0.60;0.60;;;16.30;99.90;;;;;;5000481;28;20648;-65
2022/11/16 12:32:15;;;;;;;1.10;0.80;;;16.30;99.90;;;;;;4996753;28;20233;-64
2022/11/16 12:34:58;;;;;;;0.57;0.57;;;16.20;99.90;;;;;;4998296;28;20289;-63
2022/11/16 12:37:32;;;;;;;1.10;0.87;;;16.20;99.90;;;;;;5004313;28;20663;-64
2022/11/16 12:40:23;;;;;;;0.80;0.80;;;16.20;99.90;;;;;;5007418;28;20276;-64
2022/11/16 12:42:58;;;;;;;0.60;0.57;;;16.20;99.90;;;;;;4997067;28;20710;-64
2022/11/16 12:46:02;;;;;;;0.80;0.80;;;16.30;99.90;;;;;;5006199;28;20189;-63
2022/11/16 12:49:08;;;;;;;0.97;0.97;;;16.40;99.90;;;;;;5001351;28;20292;-65
2022/11/16 12:51:49;;;;;;;1.30;0.90;;;16.40;99.90;;;;;;5007761;28;20706;-64
2022/11/16 12:54:32;;;;;;;0.80;0.80;;;16.50;99.90;;;;;;4997157;28;20236;-65
2022/11/16 12:57:07;;;;;;;0.80;0.80;;;16.50;99.90;;;;;;4988605;28;20198;-63
2022/11/16 12:59:52;;;;;;;0.60;0.60;;;16.50;99.90;;;;;;4987754;28;20208;-64
2022/11/16 13:02:34;;;;;;;0.80;0.80;;;16.50;99.90;;;;;;4980473;28;20229;-64
2022/11/16 13:05:05;;;;;;;0.70;0.70;;;16.50;99.90;;;;;;4998606;28;20197;-65
2022/11/16 13:07:40;;;;;;;1.00;0.90;;;16.50;99.90;;;;;;4993869;28;20288;-64
2022/11/16 13:10:16;;;;;;;0.60;0.60;;;16.60;99.90;;;;;;4994177;28;20202;-64
2022/11/16 13:12:44;;;;;;;0.80;0.80;;;16.60;99.90;;;;;;4985225;28;20237;-63
2022/11/16 13:15:18;;;;;;;0.80;0.80;;;16.50;99.90;;;;;;4999411;28;20285;-65
2022/11/16 13:17:51;;;;;;;0.70;0.70;;;16.50;99.90;;;;;;5011701;28;20204;-63
2022/11/16 13:20:31;;;;;;;0.70;0.70;;;16.50;99.90;;;;;;5002751;28;20210;-63
2022/11/16 13:23:05;;;;;;;0.70;0.70;;;16.50;99.90;;;;;;4991527;28;20197;-65
2022/11/16 13:25:40;;;;;;;0.83;0.80;;;16.50;99.90;;;;;;5001840;28;20702;-64
2022/11/16 13:28:17;;;;;;;0.63;0.63;;;16.50;99.90;;;;;;4993811;28;20194;-64
2022/11/16 13:30:50;;;;;;;1.33;1.07;;;16.40;99.90;;;;;;4993657;28;20234;-63
2022/11/16 13:33:35;;;;;;;0.90;0.87;;;16.30;99.90;;;;;;4998922;28;20436;-63
2022/11/16 13:36:35;;;;;;;0.60;0.60;;;16.30;99.90;;;;;;4998725;28;20292;-65
2022/11/16 13:39:04;;;;;;;1.03;0.80;;;16.20;99.90;;;;;;4989918;28;20210;-63
2022/11/16 13:41:34;;;;;;;1.33;0.80;;;16.20;99.90;;;;;;5008865;28;20247;-65
2022/11/16 13:44:01;;;;;;;0.77;0.77;;;16.10;99.90;;;;;;4996195;28;20216;-64
2022/11/16 13:46:44;;;;;;;0.90;0.90;;;16.10;99.90;;;;;;5000403;28;20202;-63
2022/11/16 13:49:24;;;;;;;0.50;0.50;;;16.00;99.90;;;;;;4997531;28;20273;-63
2022/11/16 13:51:54;;;;;;;0.70;0.70;;;16.00;99.90;;;;;;4985695;28;20230;-63